createdAt,value
2018-02-27T00:02:11.827Z,12.60
2018-02-27T00:04:38.913Z,12.93
2018-02-27T00:07:06.040Z,14.07
2018-02-27T00:09:33.129Z,13.27
2018-02-27T00:12:00.187Z,14.17
2018-02-27T00:14:27.491Z,13.60
2018-02-27T00:16:54.563Z,14.63
2018-02-27T00:19:21.630Z,12.57
2018-02-27T00:21:49.056Z,12.83
2018-02-27T00:24:19.638Z,12.43
2018-02-27T00:26:46.720Z,13.43
2018-02-27T00:29:13.928Z,13.80
2018-02-27T00:31:41.010Z,12.03
2018-02-27T00:34:14.656Z,14.37
2018-02-27T00:36:41.673Z,14.43
2018-02-27T00:44:31.602Z,16.20
2018-02-27T00:49:44.752Z,21.00
2018-02-27T00:52:11.890Z,16.20
2018-02-27T00:54:38.978Z,16.00
2018-02-27T00:57:10.416Z,13.47
2018-02-27T00:59:37.547Z,15.10
2018-02-27T01:02:04.651Z,13.57
2018-02-27T01:04:31.725Z,15.90
2018-02-27T01:07:02.282Z,14.47
2018-02-27T01:09:29.438Z,15.53
2018-02-27T01:11:56.518Z,14.40
2018-02-27T01:14:23.656Z,15.13
2018-02-27T01:16:50.729Z,16.80
2018-02-27T01:19:17.864Z,16.67
2018-02-27T01:21:44.961Z,14.73
2018-02-27T01:24:12.042Z,13.47
2018-02-27T01:26:39.117Z,14.57
2018-02-27T01:29:06.460Z,13.70
2018-02-27T01:31:33.683Z,13.47
2018-02-27T01:34:00.759Z,14.33
2018-02-27T01:36:27.883Z,15.53
2018-02-27T01:38:54.975Z,14.00
2018-02-27T01:41:22.049Z,14.23
2018-02-27T01:43:49.253Z,13.97
2018-02-27T01:46:22.679Z,15.10
2018-02-27T01:48:49.817Z,14.90
2018-02-27T01:51:16.912Z,12.70
2018-02-27T01:53:44.969Z,14.13
2018-02-27T01:56:12.089Z,14.87
2018-02-27T01:58:39.167Z,14.67
2018-02-27T02:01:06.246Z,15.40
2018-02-27T02:03:33.363Z,15.00
2018-02-27T02:06:00.438Z,15.83
2018-02-27T02:08:27.531Z,14.73
2018-02-27T02:13:34.289Z,21.92
2018-02-27T02:16:01.420Z,17.23
2018-02-27T02:23:52.981Z,17.97
2018-02-27T02:26:20.136Z,16.43
2018-02-27T02:28:47.240Z,16.97
2018-02-27T02:31:15.053Z,16.20
2018-02-27T02:33:42.192Z,17.30
2018-02-27T02:36:09.527Z,15.70
2018-02-27T02:38:36.613Z,14.87
2018-02-27T02:43:41.884Z,21.67
2018-02-27T02:46:08.992Z,17.60
2018-02-27T02:48:36.940Z,18.03
2018-02-27T02:51:04.079Z,15.53
2018-02-27T02:53:31.140Z,15.50
2018-02-27T02:55:58.235Z,15.43
2018-02-27T02:58:25.312Z,15.33
2018-02-27T03:00:53.106Z,16.47
2018-02-27T03:03:20.180Z,14.23
2018-02-27T03:05:53.957Z,15.20
2018-02-27T03:08:21.028Z,15.17
2018-02-27T03:10:48.103Z,16.00
2018-02-27T03:13:15.233Z,15.50
2018-02-27T03:15:42.304Z,15.90
2018-02-27T03:18:09.368Z,16.10
2018-02-27T03:20:36.492Z,16.00
2018-02-27T03:23:03.664Z,15.70
2018-02-27T03:25:30.737Z,17.30
2018-02-27T03:27:57.840Z,15.50
2018-02-27T03:30:24.926Z,16.07
2018-02-27T03:33:01.438Z,16.17
2018-02-27T03:35:28.519Z,16.77
2018-02-27T03:37:55.594Z,17.30
2018-02-27T03:40:22.726Z,16.67
2018-02-27T03:42:49.870Z,16.13
2018-02-27T03:45:16.947Z,16.70
2018-02-27T03:47:44.076Z,16.87
2018-02-27T03:50:12.987Z,15.60
2018-02-27T03:52:38.220Z,18.23
2018-02-27T03:55:05.345Z,18.07
2018-02-27T03:57:32.438Z,18.10
2018-02-27T04:00:01.349Z,15.77
2018-02-27T04:08:01.749Z,18.33
2018-02-27T04:26:58.184Z,19.03
2018-02-27T04:29:30.352Z,18.97
2018-02-27T04:34:26.208Z,16.33
2018-02-27T04:37:12.591Z,18.60
2018-02-27T04:39:39.665Z,16.07
2018-02-27T04:42:07.441Z,16.63
2018-02-27T04:44:34.506Z,16.57
2018-02-27T04:47:01.641Z,15.87
2018-02-27T04:49:28.758Z,16.03
2018-02-27T04:51:55.828Z,16.17
2018-02-27T04:54:22.904Z,17.27
2018-02-27T04:56:50.032Z,16.70
2018-02-27T04:59:17.100Z,17.23
2018-02-27T05:01:49.959Z,16.30
2018-02-27T05:07:03.026Z,16.60
2018-02-27T05:09:30.103Z,15.97
2018-02-27T05:11:57.176Z,16.13
2018-02-27T05:14:24.470Z,17.73
2018-02-27T05:16:53.006Z,19.50
2018-02-27T05:19:20.080Z,15.93
2018-02-27T05:21:53.914Z,19.00
2018-02-27T05:29:54.887Z,18.47
2018-02-27T05:32:25.327Z,18.43
2018-02-27T05:34:52.420Z,17.20
2018-02-27T05:45:45.108Z,18.60
2018-02-27T05:48:12.231Z,19.60
2018-02-27T05:50:39.314Z,18.00
2018-02-27T05:53:08.432Z,18.17
2018-02-27T05:55:35.578Z,14.70
2018-02-27T06:00:42.257Z,13.20
2018-02-27T06:08:31.569Z,20.17
2018-02-27T06:10:59.127Z,17.90
2018-02-27T06:13:32.247Z,18.40
2018-02-27T06:15:59.400Z,17.03
2018-02-27T06:18:26.473Z,16.83
2018-02-27T06:20:53.536Z,18.63
2018-02-27T06:23:21.604Z,19.63
2018-02-27T06:25:49.123Z,23.80
2018-02-27T06:28:16.181Z,19.03
2018-02-27T06:30:43.359Z,19.20
2018-02-27T06:33:10.438Z,21.17
2018-02-27T06:35:37.524Z,18.57
2018-02-27T06:38:04.668Z,18.13
2018-02-27T06:40:31.746Z,18.20
2018-02-27T06:46:00.710Z,15.93
2018-02-27T06:48:31.714Z,16.97
2018-02-27T06:50:59.151Z,18.70
2018-02-27T06:53:29.237Z,19.47
2018-02-27T07:09:11.464Z,22.83
2018-02-27T07:11:38.995Z,20.27
2018-02-27T07:14:08.106Z,19.63
2018-02-27T07:24:43.879Z,21.80
2018-02-27T07:27:19.674Z,18.53
2018-02-27T07:32:38.028Z,15.23
2018-02-27T07:40:32.011Z,16.37
2018-02-27T07:42:59.146Z,16.47
2018-02-27T07:45:27.730Z,15.20
2018-02-27T07:56:11.907Z,16.07
2018-02-27T07:58:39.028Z,16.80
2018-02-27T08:01:06.097Z,14.83
2018-02-27T08:03:36.039Z,16.33
2018-02-27T08:06:03.185Z,18.20
2018-02-27T08:08:30.268Z,15.70
2018-02-27T08:10:57.330Z,17.50
2018-02-27T08:13:29.396Z,12.97
2018-02-27T08:15:56.424Z,17.73
2018-02-27T08:18:23.499Z,17.37
2018-02-27T08:20:50.600Z,16.67
2018-02-27T08:23:18.572Z,17.20
2018-02-27T08:25:45.669Z,14.80
2018-02-27T08:28:12.789Z,14.33
2018-02-27T08:30:39.864Z,17.13
2018-02-27T08:33:07.216Z,16.37
2018-02-27T08:35:34.345Z,16.87
2018-02-27T08:38:01.440Z,15.67
2018-02-27T08:40:28.515Z,15.93
2018-02-27T08:42:55.634Z,16.20
2018-02-27T08:45:22.714Z,15.50
2018-02-27T08:47:49.829Z,15.33
2018-02-27T08:50:23.014Z,15.20
2018-02-27T08:52:50.069Z,15.97
2018-02-27T08:55:17.132Z,16.33
2018-02-27T08:57:44.233Z,16.90
2018-02-27T09:00:11.415Z,16.90
2018-02-27T09:02:38.482Z,15.90
2018-02-27T09:07:44.114Z,20.85
2018-02-27T09:10:11.264Z,18.83
2018-02-27T09:12:38.328Z,16.50
2018-02-27T09:15:05.388Z,14.63
2018-02-27T09:17:32.576Z,10.90
2018-02-27T09:19:59.758Z,16.97
2018-02-27T09:22:26.828Z,14.90
2018-02-27T09:24:54.433Z,17.57
2018-02-27T09:27:21.479Z,15.93
2018-02-27T09:29:48.542Z,16.97
2018-02-27T09:32:15.672Z,16.67
2018-02-27T09:34:42.739Z,17.80
2018-02-27T09:37:10.267Z,16.27
2018-02-27T09:39:37.424Z,16.13
2018-02-27T09:42:04.500Z,18.43
2018-02-27T09:44:31.554Z,15.07
2018-02-27T09:46:58.674Z,16.53
2018-02-27T09:49:25.835Z,14.23
2018-02-27T09:51:53.264Z,13.77
2018-02-27T09:54:20.370Z,14.37
2018-02-27T09:56:47.422Z,13.87
2018-02-27T09:59:14.522Z,15.93
2018-02-27T10:01:41.689Z,15.43
2018-02-27T10:04:08.719Z,15.10
2018-02-27T10:06:35.861Z,14.80
2018-02-27T10:09:03.059Z,15.43
2018-02-27T10:11:30.130Z,14.93
2018-02-27T10:13:57.230Z,12.27
2018-02-27T10:16:24.352Z,10.70
2018-02-27T10:18:51.430Z,16.37
2018-02-27T10:21:18.847Z,16.43
2018-02-27T10:23:45.960Z,15.40
2018-02-27T10:26:13.028Z,14.47
2018-02-27T10:28:40.092Z,15.97
2018-02-27T10:33:45.694Z,21.02
2018-02-27T10:36:12.820Z,14.50
2018-02-27T10:38:39.891Z,18.67
2018-02-27T10:41:07.025Z,14.90
2018-02-27T10:43:34.217Z,14.70
2018-02-27T10:46:01.296Z,14.97
2018-02-27T10:48:28.346Z,11.63
2018-02-27T10:50:55.471Z,12.13
2018-02-27T10:53:22.531Z,15.67
2018-02-27T10:55:49.596Z,13.03
2018-02-27T10:58:16.799Z,14.57
2018-02-27T11:00:43.873Z,15.33
2018-02-27T11:03:10.940Z,13.10
2018-02-27T11:05:38.056Z,16.10
2018-02-27T11:10:45.019Z,19.50
2018-02-27T11:13:12.081Z,15.43
2018-02-27T11:15:39.147Z,15.70
2018-02-27T11:18:06.294Z,13.13
2018-02-27T11:20:33.359Z,11.80
2018-02-27T11:23:00.507Z,15.80
2018-02-27T11:25:27.708Z,14.03
2018-02-27T11:27:54.771Z,14.37
2018-02-27T11:30:21.843Z,13.63
2018-02-27T11:32:48.958Z,12.07
2018-02-27T11:35:16.024Z,17.83
2018-02-27T11:37:43.559Z,15.57
2018-02-27T11:40:10.691Z,11.77
2018-02-27T11:42:37.746Z,14.83
2018-02-27T11:45:04.811Z,15.97
2018-02-27T11:47:31.933Z,11.73
2018-02-27T11:49:59.018Z,11.80
2018-02-27T11:52:26.090Z,10.83
2018-02-27T11:54:53.203Z,14.27
2018-02-27T11:57:20.268Z,15.83
2018-02-27T11:59:47.343Z,13.80
2018-02-27T12:02:15.838Z,13.40
2018-02-27T12:04:42.920Z,13.00
2018-02-27T12:07:09.974Z,8.47
2018-02-27T12:09:37.106Z,11.27
2018-02-27T12:12:04.760Z,10.40
2018-02-27T12:14:31.847Z,12.37
2018-02-27T12:16:59.052Z,8.50
2018-02-27T12:19:26.119Z,11.70
2018-02-27T12:24:33.727Z,15.23
2018-02-27T12:27:00.793Z,13.37
2018-02-27T12:29:27.856Z,11.60
2018-02-27T12:31:54.982Z,11.10
2018-02-27T12:34:22.067Z,10.83
2018-02-27T12:36:49.122Z,10.07
2018-02-27T12:39:16.236Z,9.80
2018-02-27T12:41:43.383Z,10.53
2018-02-27T12:46:37.751Z,8.13
2018-02-27T12:49:04.836Z,9.83
2018-02-27T12:51:31.986Z,11.53
2018-02-27T12:53:59.180Z,10.13
2018-02-27T12:56:26.270Z,6.13
2018-02-27T12:58:53.353Z,11.43
2018-02-27T13:01:20.461Z,10.73
2018-02-27T13:03:47.531Z,9.80
2018-02-27T13:06:14.600Z,10.03
2018-02-27T13:08:41.716Z,8.90
2018-02-27T13:11:08.855Z,10.60
2018-02-27T13:13:36.007Z,10.00
2018-02-27T13:16:03.239Z,9.33
2018-02-27T13:18:30.319Z,10.50
2018-02-27T13:20:57.392Z,10.37
2018-02-27T13:23:24.500Z,12.30
2018-02-27T13:25:51.567Z,8.87
2018-02-27T13:28:18.634Z,10.17
2018-02-27T13:30:45.755Z,10.83
2018-02-27T13:33:12.910Z,11.13
2018-02-27T13:35:40.050Z,12.10
2018-02-27T13:38:07.300Z,9.97
2018-02-27T13:43:12.931Z,12.77
2018-02-27T13:45:39.995Z,10.20
2018-02-27T13:48:07.052Z,5.87
2018-02-27T13:50:34.152Z,9.93
2018-02-27T13:53:01.216Z,10.37
2018-02-27T13:55:28.378Z,9.80
2018-02-27T13:57:55.459Z,10.37
2018-02-27T14:00:22.575Z,10.10
2018-02-27T14:02:49.651Z,9.20
2018-02-27T14:05:16.772Z,11.13
2018-02-27T14:07:43.850Z,10.83
2018-02-27T14:10:10.907Z,10.60
2018-02-27T14:12:38.230Z,11.33
2018-02-27T14:15:05.289Z,11.47
2018-02-27T14:17:32.388Z,9.40
2018-02-27T14:19:59.524Z,10.10
2018-02-27T14:22:26.593Z,11.40
2018-02-27T14:24:53.648Z,11.77
2018-02-27T14:27:20.776Z,10.87
2018-02-27T14:29:47.840Z,12.07
2018-02-27T14:32:14.909Z,5.70
2018-02-27T14:34:42.143Z,5.90
2018-02-27T14:37:09.198Z,10.07
2018-02-27T14:39:36.349Z,12.10
2018-02-27T14:42:03.586Z,10.77
2018-02-27T14:44:30.624Z,9.30
2018-02-27T14:46:57.699Z,9.57
2018-02-27T14:49:24.892Z,10.90
2018-02-27T14:51:51.966Z,11.20
2018-02-27T14:54:19.032Z,12.23
2018-02-27T14:56:46.134Z,11.13
2018-02-27T14:59:13.215Z,11.73
2018-02-27T15:01:40.272Z,11.80
2018-02-27T15:06:48.367Z,16.00
2018-02-27T15:09:15.490Z,14.70
2018-02-27T15:11:42.571Z,11.17
2018-02-27T15:14:09.673Z,14.33
2018-02-27T15:16:36.794Z,11.20
2018-02-27T15:19:03.964Z,7.53
2018-02-27T15:21:31.035Z,12.67
2018-02-27T15:23:58.158Z,10.67
2018-02-27T15:26:25.208Z,8.40
2018-02-27T15:31:33.094Z,14.38
2018-02-27T15:34:00.173Z,7.67
2018-02-27T15:36:27.232Z,10.93
2018-02-27T15:38:54.365Z,5.97
2018-02-27T15:41:21.418Z,15.50
2018-02-27T15:43:48.489Z,10.50
2018-02-27T15:46:16.106Z,11.87
2018-02-27T15:48:43.193Z,9.87
2018-02-27T15:51:10.249Z,9.03
2018-02-27T15:53:37.380Z,9.37
2018-02-27T15:56:04.452Z,13.50
2018-02-27T15:58:31.522Z,12.33
2018-02-27T16:00:59.204Z,15.07
2018-02-27T16:03:26.305Z,13.83
2018-02-27T16:05:53.935Z,10.50
2018-02-27T16:08:21.072Z,11.33
2018-02-27T16:10:48.135Z,10.17
2018-02-27T16:15:53.482Z,20.20
2018-02-27T16:18:20.554Z,15.50
2018-02-27T16:20:47.630Z,15.10
2018-02-27T16:23:15.317Z,16.43
2018-02-27T16:25:42.375Z,16.57
2018-02-27T16:28:09.448Z,14.10
2018-02-27T16:30:36.560Z,15.67
2018-02-27T16:33:03.639Z,13.63
2018-02-27T16:35:30.723Z,16.47
2018-02-27T16:37:57.942Z,14.10
2018-02-27T16:40:25.001Z,14.87
2018-02-27T16:42:52.069Z,12.73
2018-02-27T16:45:19.184Z,16.47
2018-02-27T16:47:46.265Z,13.07
2018-02-27T16:50:13.323Z,9.63
2018-02-27T16:52:40.433Z,16.80
2018-02-27T16:55:08.144Z,16.87
2018-02-27T16:57:35.211Z,12.53
2018-02-27T17:00:02.305Z,17.30
2018-02-27T17:02:29.685Z,13.20
2018-02-27T17:04:56.757Z,15.77
2018-02-27T17:07:23.890Z,14.03
2018-02-27T17:09:51.238Z,12.20
2018-02-27T17:12:18.363Z,14.40
2018-02-27T17:14:45.432Z,9.90
2018-02-27T17:17:12.501Z,14.60
2018-02-27T17:19:40.179Z,15.37
2018-02-27T17:22:08.243Z,17.20
2018-02-27T17:24:35.331Z,15.17
2018-02-27T17:27:02.459Z,11.17
2018-02-27T17:32:08.865Z,22.13
2018-02-27T17:34:36.005Z,15.23
2018-02-27T17:37:03.132Z,17.10
2018-02-27T17:39:30.225Z,15.67
2018-02-27T17:41:57.743Z,17.80
2018-02-27T17:44:26.165Z,13.93
2018-02-27T17:46:57.126Z,12.10
2018-02-27T17:51:51.405Z,15.03
2018-02-27T17:54:18.548Z,12.33
2018-02-27T17:56:45.634Z,14.73
2018-02-27T17:59:12.715Z,13.17
2018-02-27T18:01:39.857Z,12.00
2018-02-27T18:04:06.931Z,13.67
2018-02-27T18:06:34.008Z,13.10
2018-02-27T18:09:01.406Z,15.07
2018-02-27T18:11:28.499Z,14.30
2018-02-27T18:13:55.588Z,15.60
2018-02-27T18:16:22.734Z,11.70
2018-02-27T18:18:49.805Z,13.43
2018-02-27T18:21:18.688Z,14.07
2018-02-27T18:23:44.438Z,14.80
2018-02-27T18:26:11.535Z,13.43
2018-02-27T18:28:38.628Z,13.23
2018-02-27T18:31:08.853Z,15.43
2018-02-27T18:33:35.942Z,11.90
2018-02-27T18:36:03.028Z,13.37
2018-02-27T18:38:30.155Z,12.13
2018-02-27T18:40:57.393Z,11.77
2018-02-27T18:43:24.472Z,12.10
2018-02-27T18:45:52.424Z,11.93
2018-02-27T18:56:39.755Z,13.87
2018-02-27T19:07:18.969Z,16.85
2018-02-27T19:09:46.034Z,12.77
2018-02-27T19:12:13.196Z,12.77
2018-02-27T19:14:40.316Z,11.63
2018-02-27T19:17:07.516Z,10.87
2018-02-27T19:19:34.607Z,11.70
2018-02-27T19:22:02.435Z,14.07
2018-02-27T19:24:31.909Z,13.83
2018-02-27T19:43:34.877Z,14.07
2018-02-27T19:46:03.214Z,13.10
2018-02-27T19:48:29.167Z,11.83
2018-02-27T20:01:51.080Z,9.93
2018-02-27T20:04:18.293Z,13.83
2018-02-27T20:06:45.434Z,12.63
2018-02-27T20:09:12.834Z,14.77
2018-02-27T20:11:39.986Z,13.87
2018-02-27T20:14:07.095Z,12.87
2018-02-27T20:16:34.188Z,15.13
2018-02-27T20:19:01.508Z,12.80
2018-02-27T20:21:29.581Z,13.47
2018-02-27T20:23:56.675Z,13.00
2018-02-27T20:26:23.937Z,13.50
2018-02-27T20:28:51.130Z,13.20
2018-02-27T20:31:18.191Z,10.50
2018-02-27T20:33:45.337Z,11.53
2018-02-27T20:38:59.791Z,19.77
2018-02-27T20:41:27.300Z,16.97
2018-02-27T20:43:55.889Z,18.53
2018-02-27T20:46:23.067Z,9.53
2018-02-27T20:48:50.137Z,11.13
2018-02-27T20:51:17.231Z,12.73
2018-02-27T20:53:44.367Z,13.67
2018-02-27T20:56:11.442Z,13.50
2018-02-27T20:58:38.535Z,13.47
2018-02-27T21:01:05.692Z,14.30
2018-02-27T21:03:32.790Z,13.77
2018-02-27T21:08:38.020Z,18.23
2018-02-27T21:11:05.124Z,14.23
2018-02-27T21:13:32.214Z,13.90
2018-02-27T21:15:59.332Z,13.30
2018-02-27T21:18:31.088Z,11.33
2018-02-27T21:20:54.197Z,13.27
2018-02-27T21:23:21.334Z,12.60
2018-02-27T21:25:48.591Z,13.83
2018-02-27T21:28:16.712Z,13.63
2018-02-27T21:30:43.843Z,11.67
2018-02-27T21:33:10.933Z,12.43
2018-02-27T21:35:38.064Z,12.13
2018-02-27T21:38:05.573Z,13.50
2018-02-27T21:40:32.721Z,13.80
2018-02-27T21:48:38.226Z,32.20
2018-02-27T21:51:12.352Z,16.47
2018-02-27T21:53:39.467Z,13.57
2018-02-27T21:56:06.730Z,13.90
2018-02-27T21:58:41.517Z,13.77
2018-02-27T22:03:57.037Z,12.97
2018-02-27T22:06:24.119Z,12.00
2018-02-27T22:08:51.163Z,13.50
2018-02-27T22:11:18.267Z,14.40
2018-02-27T22:13:45.327Z,15.20
2018-02-27T22:16:12.415Z,13.13
2018-02-27T22:18:39.541Z,13.90
2018-02-27T22:21:06.703Z,11.80
2018-02-27T22:23:33.780Z,11.30
2018-02-27T22:26:01.152Z,12.37
2018-02-27T22:28:28.242Z,13.03
2018-02-27T22:30:55.315Z,9.83
2018-02-27T22:33:22.468Z,11.80
2018-02-27T22:35:52.430Z,12.90
2018-02-27T22:38:17.531Z,12.70
2018-02-27T22:40:47.760Z,11.87
2018-02-27T22:43:14.837Z,11.77
2018-02-27T22:45:41.910Z,11.30
2018-02-27T22:48:09.041Z,11.33
2018-02-27T22:50:36.139Z,13.03
2018-02-27T22:53:03.199Z,12.10
2018-02-27T22:55:30.787Z,10.50
2018-02-27T22:57:57.611Z,10.83
2018-02-27T23:00:41.346Z,9.93
2018-02-27T23:03:08.432Z,13.20
2018-02-27T23:11:04.877Z,13.20
2018-02-27T23:13:31.547Z,14.53
2018-02-27T23:15:58.662Z,12.87
2018-02-27T23:18:26.412Z,14.07
2018-02-27T23:32:03.794Z,12.33
2018-02-27T23:34:37.074Z,9.60
2018-02-27T23:37:04.258Z,10.43
2018-02-27T23:50:21.547Z,14.43
2018-02-27T23:52:48.687Z,13.17
2018-02-27T23:55:15.782Z,12.80
